createdAt,value
2023-07-14T00:00:08.041Z,58
2023-07-14T00:00:40.452Z,59
2023-07-14T00:01:10.935Z,59
2023-07-14T00:01:43.704Z,59
2023-07-14T00:02:14.633Z,59
2023-07-14T00:02:47.742Z,58
2023-07-14T00:03:18.958Z,58
2023-07-14T00:03:51.625Z,59
2023-07-14T00:04:22.762Z,59
2023-07-14T00:04:55.717Z,59
2023-07-14T00:05:26.902Z,59
2023-07-14T00:05:59.509Z,59
2023-07-14T00:06:30.911Z,59
2023-07-14T00:07:03.451Z,59
2023-07-14T00:07:34.826Z,59
2023-07-14T00:08:07.615Z,59
2023-07-14T00:08:38.841Z,59
2023-07-14T00:09:11.625Z,58
2023-07-14T00:09:42.803Z,58
2023-07-14T00:10:15.904Z,58
2023-07-14T00:10:46.922Z,58
2023-07-14T00:11:19.495Z,57
2023-07-14T00:11:50.819Z,57
2023-07-14T00:12:23.792Z,58
2023-07-14T00:12:54.843Z,58
2023-07-14T00:13:10.826Z,58
2023-07-14T00:13:42.642Z,58
2023-07-14T00:14:14.756Z,58
2023-07-14T00:14:46.809Z,58
2023-07-14T00:15:19.603Z,58
2023-07-14T00:15:51.787Z,58
2023-07-14T00:16:22.765Z,58
2023-07-14T00:16:55.678Z,58
2023-07-14T00:17:26.864Z,58
2023-07-14T00:17:59.616Z,58
2023-07-14T00:18:30.717Z,58
2023-07-14T00:19:03.610Z,58
2023-07-14T00:19:34.742Z,58
2023-07-14T00:20:07.670Z,59
2023-07-14T00:20:38.792Z,59
2023-07-14T00:21:11.899Z,59
2023-07-14T00:21:42.818Z,59
2023-07-14T00:22:15.577Z,59
2023-07-14T00:22:46.759Z,59
2023-07-14T00:23:19.815Z,59
2023-07-14T00:23:50.846Z,59
2023-07-14T00:24:23.481Z,59
2023-07-14T00:24:54.846Z,59
2023-07-14T00:25:27.970Z,60
2023-07-14T00:25:58.657Z,60
2023-07-14T00:26:31.869Z,60
2023-07-14T00:27:02.805Z,60
2023-07-14T00:27:35.603Z,62
2023-07-14T00:28:06.759Z,62
2023-07-14T00:28:39.841Z,62
2023-07-14T00:29:10.808Z,62
2023-07-14T00:29:43.592Z,62
2023-07-14T00:30:15.657Z,62
2023-07-14T00:30:47.707Z,62
2023-07-14T00:31:18.712Z,62
2023-07-14T00:31:51.947Z,62
2023-07-14T00:32:22.869Z,62
2023-07-14T00:32:55.853Z,62
2023-07-14T00:33:26.768Z,62
2023-07-14T00:33:59.721Z,62
2023-07-14T00:34:30.808Z,62
2023-07-14T00:35:03.886Z,63
2023-07-14T00:35:34.790Z,63
2023-07-14T00:36:07.788Z,61
2023-07-14T00:36:38.814Z,61
2023-07-14T00:37:11.557Z,61
2023-07-14T00:37:42.735Z,61
2023-07-14T00:38:15.788Z,61
2023-07-14T00:38:46.726Z,61
2023-07-14T00:39:19.470Z,63
2023-07-14T00:39:50.756Z,63
2023-07-14T00:40:23.954Z,62
2023-07-14T00:40:54.705Z,62
2023-07-14T00:41:27.565Z,62
2023-07-14T00:41:58.790Z,62
2023-07-14T00:42:31.613Z,62
2023-07-14T00:43:02.861Z,62
2023-07-14T00:43:35.554Z,62
2023-07-14T00:44:06.716Z,62
2023-07-14T00:44:39.553Z,63
2023-07-14T00:45:11.916Z,63
2023-07-14T00:45:43.915Z,62
2023-07-14T00:46:14.691Z,62
2023-07-14T00:46:47.551Z,62
2023-07-14T00:47:18.977Z,62
2023-07-14T00:47:51.438Z,62
2023-07-14T00:48:22.748Z,62
2023-07-14T00:48:55.685Z,62
2023-07-14T00:49:26.855Z,62
2023-07-14T00:49:59.460Z,62
2023-07-14T00:50:31.180Z,62
2023-07-14T00:51:03.352Z,62
2023-07-14T00:51:34.864Z,62
2023-07-14T00:52:07.672Z,62
2023-07-14T00:52:38.809Z,62
2023-07-14T00:53:11.449Z,63
2023-07-14T00:53:42.800Z,63
2023-07-14T00:54:15.604Z,63
2023-07-14T00:54:46.676Z,63
2023-07-14T00:55:19.841Z,64
2023-07-14T00:55:50.860Z,64
2023-07-14T00:56:23.469Z,63
2023-07-14T00:56:54.702Z,63
2023-07-14T00:57:27.539Z,64
2023-07-14T00:57:58.952Z,64
2023-07-14T00:58:31.417Z,64
2023-07-14T00:59:02.680Z,64
2023-07-14T00:59:35.565Z,63
2023-07-14T01:00:08.662Z,63
2023-07-14T01:00:39.521Z,64
2023-07-14T01:01:11.146Z,64
2023-07-14T01:01:43.707Z,64
2023-07-14T01:02:14.799Z,64
2023-07-14T01:02:47.486Z,64
2023-07-14T01:03:18.998Z,64
2023-07-14T01:03:51.639Z,64
2023-07-14T01:04:22.697Z,64
2023-07-14T01:04:55.536Z,64
2023-07-14T01:05:27.130Z,64
2023-07-14T01:05:59.560Z,63
2023-07-14T01:06:30.627Z,63
2023-07-14T01:07:03.562Z,63
2023-07-14T01:07:34.775Z,63
2023-07-14T01:08:07.480Z,63
2023-07-14T01:08:38.876Z,63
2023-07-14T01:09:11.567Z,64
2023-07-14T01:09:42.768Z,64
2023-07-14T01:10:15.893Z,64
2023-07-14T01:10:46.921Z,64
2023-07-14T01:11:19.571Z,64
2023-07-14T01:11:50.861Z,64
2023-07-14T01:12:23.646Z,64
2023-07-14T01:12:55.017Z,64
2023-07-14T01:13:27.380Z,64
2023-07-14T01:13:58.771Z,64
2023-07-14T01:14:31.669Z,63
2023-07-14T01:15:04.023Z,63
2023-07-14T01:15:35.742Z,64
2023-07-14T01:16:06.882Z,64
2023-07-14T01:16:39.533Z,63
2023-07-14T01:17:10.792Z,63
2023-07-14T01:17:43.700Z,63
2023-07-14T01:18:14.890Z,63
2023-07-14T01:18:47.479Z,63
2023-07-14T01:19:18.752Z,63
2023-07-14T01:19:51.437Z,63
2023-07-14T01:20:22.920Z,63
2023-07-14T01:20:55.620Z,63
2023-07-14T01:21:26.754Z,63
2023-07-14T01:21:59.845Z,63
2023-07-14T01:22:30.803Z,63
2023-07-14T01:23:03.824Z,64
2023-07-14T01:23:34.895Z,64
2023-07-14T01:24:07.514Z,65
2023-07-14T01:24:38.742Z,65
2023-07-14T01:24:54.895Z,66
2023-07-14T01:25:27.004Z,66
2023-07-14T01:25:58.777Z,67
2023-07-14T01:26:30.942Z,67
2023-07-14T01:27:02.655Z,67
2023-07-14T01:27:35.680Z,67
2023-07-14T01:28:06.823Z,67
2023-07-14T01:28:39.610Z,67
2023-07-14T01:29:10.748Z,67
2023-07-14T01:29:43.443Z,67
2023-07-14T01:30:16.014Z,66
2023-07-14T01:30:47.725Z,66
2023-07-14T01:31:18.841Z,66
2023-07-14T01:31:51.834Z,66
2023-07-14T01:32:22.851Z,65
2023-07-14T01:32:55.769Z,65
2023-07-14T01:33:26.766Z,65
2023-07-14T01:33:59.669Z,65
2023-07-14T01:34:30.769Z,65
2023-07-14T01:35:03.930Z,65
2023-07-14T01:35:34.885Z,65
2023-07-14T01:36:07.778Z,65
2023-07-14T01:36:38.700Z,65
2023-07-14T01:36:54.952Z,65
2023-07-14T01:37:26.674Z,65
2023-07-14T01:37:58.829Z,66
2023-07-14T01:38:30.783Z,66
2023-07-14T01:39:02.679Z,66
2023-07-14T01:39:36.464Z,66
2023-07-14T01:40:06.959Z,66
2023-07-14T01:40:39.623Z,66
2023-07-14T01:41:10.950Z,66
2023-07-14T01:41:43.563Z,66
2023-07-14T01:42:14.795Z,66
2023-07-14T01:42:47.642Z,66
2023-07-14T01:43:18.734Z,66
2023-07-14T01:43:51.613Z,66
2023-07-14T01:44:22.840Z,66
2023-07-14T01:44:55.603Z,66
2023-07-14T01:45:27.862Z,66
2023-07-14T01:45:59.854Z,66
2023-07-14T01:46:30.740Z,65
2023-07-14T01:47:03.624Z,65
2023-07-14T01:47:34.904Z,64
2023-07-14T01:48:07.795Z,64
2023-07-14T01:48:38.672Z,64
2023-07-14T01:49:11.522Z,64
2023-07-14T01:49:42.780Z,64
2023-07-14T01:50:15.891Z,64
2023-07-14T01:50:46.734Z,64
2023-07-14T01:51:19.934Z,64
2023-07-14T01:51:50.883Z,65
2023-07-14T01:52:23.579Z,65
2023-07-14T01:52:54.791Z,66
2023-07-14T01:53:27.569Z,66
2023-07-14T01:53:58.739Z,66
2023-07-14T01:54:31.629Z,66
2023-07-14T01:55:03.077Z,66
2023-07-14T01:55:35.585Z,66
2023-07-14T01:56:06.770Z,66
2023-07-14T01:56:22.935Z,66
2023-07-14T01:56:54.633Z,65
2023-07-14T01:57:26.798Z,65
2023-07-14T01:57:58.853Z,65
2023-07-14T01:58:30.756Z,65
2023-07-14T01:59:03.651Z,65
2023-07-14T01:59:34.840Z,65
2023-07-14T02:00:09.416Z,64
2023-07-14T02:00:38.836Z,64
2023-07-14T02:01:11.947Z,64
2023-07-14T02:01:42.915Z,64
2023-07-14T02:02:15.800Z,63
2023-07-14T02:02:47.037Z,63
2023-07-14T02:03:19.867Z,63
2023-07-14T02:03:51.045Z,63
2023-07-14T02:04:23.919Z,64
2023-07-14T02:04:54.939Z,64
2023-07-14T02:05:28.279Z,64
2023-07-14T02:05:58.781Z,64
2023-07-14T02:06:31.672Z,63
2023-07-14T02:07:02.998Z,63
2023-07-14T02:07:35.906Z,63
2023-07-14T02:08:06.858Z,63
2023-07-14T02:08:39.702Z,63
2023-07-14T02:09:10.855Z,63
2023-07-14T02:09:44.384Z,63
2023-07-14T02:10:15.101Z,63
2023-07-14T02:10:47.712Z,63
2023-07-14T02:11:19.075Z,63
2023-07-14T02:11:51.637Z,64
2023-07-14T02:12:23.112Z,64
2023-07-14T02:12:55.870Z,64
2023-07-14T02:13:26.782Z,64
2023-07-14T02:14:00.708Z,64
2023-07-14T02:14:30.946Z,64
2023-07-14T02:15:05.212Z,65
2023-07-14T02:15:35.262Z,65
2023-07-14T02:16:07.712Z,65
2023-07-14T02:16:39.079Z,65
2023-07-14T02:17:11.883Z,65
2023-07-14T02:17:42.729Z,65
2023-07-14T02:18:15.575Z,65
2023-07-14T02:18:46.766Z,65
2023-07-14T02:19:19.625Z,66
2023-07-14T02:19:50.780Z,66
2023-07-14T02:20:24.875Z,65
2023-07-14T02:20:54.767Z,65
2023-07-14T02:21:27.648Z,65
2023-07-14T02:21:58.879Z,65
2023-07-14T02:22:31.932Z,65
2023-07-14T02:23:03.036Z,65
2023-07-14T02:23:35.662Z,66
2023-07-14T02:24:06.954Z,66
2023-07-14T02:24:39.590Z,66
2023-07-14T02:25:11.004Z,66
2023-07-14T02:25:43.616Z,67
2023-07-14T02:26:14.741Z,67
2023-07-14T02:26:47.393Z,67
2023-07-14T02:27:18.776Z,67
2023-07-14T02:27:51.613Z,67
2023-07-14T02:28:22.661Z,67
2023-07-14T02:28:55.530Z,66
2023-07-14T02:29:26.903Z,66
2023-07-14T02:29:59.611Z,66
2023-07-14T02:30:31.908Z,66
2023-07-14T02:31:03.625Z,66
2023-07-14T02:31:34.723Z,66
2023-07-14T02:32:07.498Z,66
2023-07-14T02:32:38.865Z,66
2023-07-14T02:33:11.810Z,67
2023-07-14T02:33:42.703Z,67
2023-07-14T02:34:15.775Z,67
2023-07-14T02:34:46.974Z,67
2023-07-14T02:35:19.817Z,66
2023-07-14T02:35:50.952Z,66
2023-07-14T02:36:23.755Z,66
2023-07-14T02:36:54.950Z,66
2023-07-14T02:37:27.703Z,67
2023-07-14T02:37:58.919Z,67
2023-07-14T02:38:31.882Z,67
2023-07-14T02:39:02.796Z,67
2023-07-14T02:39:35.779Z,68
2023-07-14T02:40:07.083Z,68
2023-07-14T02:40:40.451Z,68
2023-07-14T02:41:11.095Z,68
2023-07-14T02:41:43.733Z,68
2023-07-14T02:42:14.930Z,68
2023-07-14T02:42:47.820Z,68
2023-07-14T02:43:18.813Z,68
2023-07-14T02:43:51.660Z,69
2023-07-14T02:44:22.750Z,69
2023-07-14T02:44:55.643Z,68
2023-07-14T02:45:27.877Z,68
2023-07-14T02:46:00.044Z,69
2023-07-14T02:46:30.946Z,69
2023-07-14T02:47:03.764Z,69
2023-07-14T02:47:34.876Z,69
2023-07-14T02:48:07.615Z,68
2023-07-14T02:48:38.839Z,68
2023-07-14T02:49:11.635Z,68
2023-07-14T02:49:42.882Z,68
2023-07-14T02:50:16.064Z,68
2023-07-14T02:50:46.792Z,68
2023-07-14T02:51:19.652Z,67
2023-07-14T02:51:50.842Z,67
2023-07-14T02:52:23.846Z,68
2023-07-14T02:52:54.779Z,68
2023-07-14T02:53:27.748Z,68
2023-07-14T02:53:58.773Z,68
2023-07-14T02:54:31.518Z,68
2023-07-14T02:55:03.302Z,68
2023-07-14T02:55:35.550Z,68
2023-07-14T02:56:06.809Z,68
2023-07-14T02:56:40.619Z,68
2023-07-14T02:57:10.725Z,68
2023-07-14T02:57:43.701Z,68
2023-07-14T02:58:14.867Z,68
2023-07-14T02:58:47.720Z,68
2023-07-14T02:59:18.753Z,68
2023-07-14T02:59:52.835Z,68
2023-07-14T03:00:24.037Z,68
2023-07-14T03:00:56.416Z,68
2023-07-14T03:01:26.957Z,68
2023-07-14T03:01:59.684Z,68
2023-07-14T03:02:30.809Z,68
2023-07-14T03:03:03.883Z,68
2023-07-14T03:03:35.017Z,68
2023-07-14T03:04:07.718Z,68
2023-07-14T03:04:38.703Z,68
2023-07-14T03:05:11.925Z,68
2023-07-14T03:05:42.939Z,68
2023-07-14T03:06:15.655Z,68
2023-07-14T03:06:48.037Z,68
2023-07-14T03:07:19.676Z,68
2023-07-14T03:07:50.772Z,68
2023-07-14T03:08:23.683Z,68
2023-07-14T03:08:54.780Z,68
2023-07-14T03:09:27.516Z,68
2023-07-14T03:09:58.757Z,68
2023-07-14T03:10:33.702Z,68
2023-07-14T03:11:02.812Z,68
2023-07-14T03:11:35.461Z,69
2023-07-14T03:12:06.786Z,69
2023-07-14T03:12:39.649Z,69
2023-07-14T03:13:10.689Z,69
2023-07-14T03:13:44.697Z,69
2023-07-14T03:14:14.817Z,69
2023-07-14T03:14:48.732Z,70
2023-07-14T03:15:19.729Z,70
2023-07-14T03:15:51.825Z,70
2023-07-14T03:16:22.822Z,70
2023-07-14T03:16:55.606Z,70
2023-07-14T03:17:26.858Z,70
2023-07-14T03:18:02.907Z,70
2023-07-14T03:18:30.824Z,70
2023-07-14T03:19:03.579Z,70
2023-07-14T03:19:34.992Z,70
2023-07-14T03:20:07.766Z,70
2023-07-14T03:20:38.710Z,70
2023-07-14T03:21:12.001Z,70
2023-07-14T03:21:42.876Z,70
2023-07-14T03:22:18.674Z,70
2023-07-14T03:22:46.824Z,70
2023-07-14T03:23:19.695Z,70
2023-07-14T03:23:50.644Z,70
2023-07-14T03:24:23.596Z,70
2023-07-14T03:24:54.844Z,70
2023-07-14T03:25:27.821Z,71
2023-07-14T03:25:58.717Z,71
2023-07-14T03:26:31.639Z,71
2023-07-14T03:27:02.870Z,71
2023-07-14T03:27:35.392Z,71
2023-07-14T03:28:06.778Z,71
2023-07-14T03:28:39.552Z,71
2023-07-14T03:29:11.132Z,71
2023-07-14T03:29:43.916Z,72
2023-07-14T03:30:16.082Z,72
2023-07-14T03:30:51.132Z,72
2023-07-14T03:31:19.028Z,72
2023-07-14T03:31:51.957Z,73
2023-07-14T03:32:23.068Z,73
2023-07-14T03:32:56.120Z,73
2023-07-14T03:33:26.945Z,73
2023-07-14T03:34:00.049Z,73
2023-07-14T03:34:31.154Z,73
2023-07-14T03:35:04.163Z,73
2023-07-14T03:35:35.001Z,73
2023-07-14T03:36:07.957Z,73
2023-07-14T03:36:38.920Z,73
2023-07-14T03:37:11.986Z,73
2023-07-14T03:37:43.000Z,73
2023-07-14T03:38:15.791Z,74
2023-07-14T03:38:46.989Z,74
2023-07-14T03:39:20.947Z,74
2023-07-14T03:39:51.003Z,74
2023-07-14T03:40:24.071Z,74
2023-07-14T03:40:55.006Z,74
2023-07-14T03:41:27.834Z,74
2023-07-14T03:41:59.089Z,74
2023-07-14T03:42:31.702Z,73
2023-07-14T03:43:03.099Z,73
2023-07-14T03:43:35.860Z,74
2023-07-14T03:44:06.974Z,74
2023-07-14T03:44:40.007Z,73
2023-07-14T03:45:12.084Z,73
2023-07-14T03:45:44.039Z,73
2023-07-14T03:46:15.179Z,73
2023-07-14T03:46:47.846Z,73
2023-07-14T03:47:19.137Z,73
2023-07-14T03:47:51.861Z,73
2023-07-14T03:48:22.963Z,73
2023-07-14T03:48:56.978Z,73
2023-07-14T03:49:27.016Z,73
2023-07-14T03:49:59.746Z,74
2023-07-14T03:50:31.439Z,74
2023-07-14T03:51:04.924Z,74
2023-07-14T03:51:35.057Z,74
2023-07-14T03:52:07.852Z,74
2023-07-14T03:52:39.084Z,74
2023-07-14T03:53:11.794Z,75
2023-07-14T03:53:43.139Z,75
2023-07-14T03:54:15.868Z,75
2023-07-14T03:54:47.165Z,75
2023-07-14T03:55:21.005Z,75
2023-07-14T03:55:51.174Z,75
2023-07-14T03:56:23.926Z,75
2023-07-14T03:56:55.023Z,75
2023-07-14T03:57:27.902Z,75
2023-07-14T03:58:04.168Z,75
2023-07-14T03:58:32.219Z,74
2023-07-14T03:59:03.027Z,74
2023-07-14T03:59:35.898Z,75
2023-07-14T04:00:08.443Z,75
2023-07-14T04:00:41.011Z,75
2023-07-14T04:01:10.882Z,75
2023-07-14T04:01:43.935Z,74
2023-07-14T04:02:15.022Z,74
2023-07-14T04:02:47.841Z,75
2023-07-14T04:03:19.108Z,75
2023-07-14T04:03:52.026Z,76
2023-07-14T04:04:23.203Z,76
2023-07-14T04:04:55.792Z,75
2023-07-14T04:05:27.261Z,75
2023-07-14T04:05:59.979Z,75
2023-07-14T04:06:30.962Z,75
2023-07-14T04:07:03.946Z,75
2023-07-14T04:07:35.080Z,75
2023-07-14T04:08:08.146Z,76
2023-07-14T04:08:38.937Z,76
2023-07-14T04:08:55.261Z,76
2023-07-14T04:09:26.955Z,75
2023-07-14T04:09:58.967Z,75
2023-07-14T04:10:31.500Z,75
2023-07-14T04:11:03.022Z,75
2023-07-14T04:11:35.721Z,75
2023-07-14T04:12:07.149Z,75
2023-07-14T04:12:39.890Z,75
2023-07-14T04:13:11.022Z,75
2023-07-14T04:13:43.925Z,75
2023-07-14T04:14:15.075Z,75
2023-07-14T04:14:47.805Z,75
2023-07-14T04:15:20.064Z,75
2023-07-14T04:15:52.180Z,75
2023-07-14T04:16:22.972Z,75
2023-07-14T04:16:55.902Z,75
2023-07-14T04:17:27.073Z,75
2023-07-14T04:17:59.941Z,74
2023-07-14T04:18:30.916Z,74
2023-07-14T04:19:03.707Z,75
2023-07-14T04:19:35.092Z,75
2023-07-14T04:20:07.883Z,75
2023-07-14T04:20:38.960Z,75
2023-07-14T04:21:11.806Z,75
2023-07-14T04:21:43.090Z,75
2023-07-14T04:22:15.888Z,75
2023-07-14T04:22:47.017Z,75
2023-07-14T04:23:20.258Z,75
2023-07-14T04:23:51.404Z,75
2023-07-14T04:24:23.896Z,75
2023-07-14T04:24:55.130Z,75
2023-07-14T04:25:28.388Z,75
2023-07-14T04:25:59.064Z,75
2023-07-14T04:26:31.873Z,75
2023-07-14T04:27:03.079Z,75
2023-07-14T04:27:36.089Z,75
2023-07-14T04:28:07.017Z,75
2023-07-14T04:28:39.806Z,75
2023-07-14T04:29:11.160Z,75
2023-07-14T04:29:43.784Z,75
2023-07-14T04:30:16.066Z,75
2023-07-14T04:30:49.002Z,75
2023-07-14T04:31:19.214Z,75
2023-07-14T04:31:51.885Z,75
2023-07-14T04:32:23.221Z,75
2023-07-14T04:32:56.206Z,75
2023-07-14T04:33:27.066Z,75
2023-07-14T04:33:59.950Z,75
2023-07-14T04:34:31.218Z,75
2023-07-14T04:35:04.199Z,75
2023-07-14T04:35:35.171Z,75
2023-07-14T04:36:07.803Z,75
2023-07-14T04:36:39.160Z,75
2023-07-14T04:37:11.867Z,77
2023-07-14T04:37:43.091Z,77
2023-07-14T04:38:15.983Z,77
2023-07-14T04:38:47.009Z,77
2023-07-14T04:39:20.041Z,78
2023-07-14T04:39:51.202Z,78
2023-07-14T04:40:34.393Z,77
2023-07-14T04:40:55.199Z,77
2023-07-14T04:41:27.878Z,76
2023-07-14T04:41:59.165Z,76
2023-07-14T04:42:32.306Z,76
2023-07-14T04:43:03.093Z,76
2023-07-14T04:43:35.954Z,76
2023-07-14T04:44:07.143Z,76
2023-07-14T04:44:40.754Z,76
2023-07-14T04:45:12.125Z,76
2023-07-14T04:45:44.149Z,76
2023-07-14T04:46:15.351Z,76
2023-07-14T04:46:47.831Z,77
2023-07-14T04:47:19.163Z,77
2023-07-14T04:47:51.939Z,76
2023-07-14T04:48:22.997Z,76
2023-07-14T04:48:55.866Z,76
2023-07-14T04:49:27.185Z,76
2023-07-14T04:50:00.972Z,76
2023-07-14T04:50:31.151Z,76
2023-07-14T04:51:03.830Z,76
2023-07-14T04:51:34.991Z,76
2023-07-14T04:52:07.892Z,76
2023-07-14T04:52:39.109Z,76
2023-07-14T04:53:12.103Z,76
2023-07-14T04:53:42.998Z,76
2023-07-14T04:54:16.553Z,75
2023-07-14T04:54:47.113Z,75
2023-07-14T04:55:20.490Z,75
2023-07-14T04:55:51.209Z,75
2023-07-14T04:56:24.928Z,75
2023-07-14T04:56:54.948Z,75
2023-07-14T04:57:27.748Z,75
2023-07-14T04:57:59.071Z,75
2023-07-14T04:58:32.039Z,75
2023-07-14T04:59:02.903Z,75
2023-07-14T04:59:35.889Z,75
2023-07-14T05:00:08.395Z,75
2023-07-14T05:00:40.885Z,75
2023-07-14T05:01:11.086Z,75
2023-07-14T05:01:43.712Z,75
2023-07-14T05:02:15.146Z,75
2023-07-14T05:02:47.903Z,75
2023-07-14T05:03:19.191Z,75
2023-07-14T05:03:51.850Z,75
2023-07-14T05:04:23.164Z,75
2023-07-14T05:05:01.185Z,75
2023-07-14T05:05:27.409Z,75
2023-07-14T05:05:59.622Z,75
2023-07-14T05:06:31.100Z,75
2023-07-14T05:07:03.807Z,75
2023-07-14T05:07:35.137Z,75
2023-07-14T05:08:07.850Z,75
2023-07-14T05:08:39.101Z,75
2023-07-14T05:09:11.763Z,75
2023-07-14T05:09:43.238Z,75
2023-07-14T05:10:17.837Z,75
2023-07-14T05:10:47.035Z,75
2023-07-14T05:11:20.813Z,75
2023-07-14T05:11:50.998Z,75
2023-07-14T05:12:23.790Z,75
2023-07-14T05:12:55.186Z,75
2023-07-14T05:13:27.728Z,75
2023-07-14T05:13:59.047Z,75
2023-07-14T05:14:31.912Z,75
2023-07-14T05:15:04.750Z,75
2023-07-14T05:15:36.026Z,75
2023-07-14T05:16:07.238Z,75
2023-07-14T05:16:39.966Z,75
2023-07-14T05:17:11.026Z,75
2023-07-14T05:17:43.996Z,75
2023-07-14T05:18:15.110Z,75
2023-07-14T05:18:47.822Z,75
2023-07-14T05:19:19.066Z,75
2023-07-14T05:19:52.629Z,75
2023-07-14T05:20:23.383Z,75
2023-07-14T05:20:55.677Z,75
2023-07-14T05:21:26.981Z,75
2023-07-14T05:21:59.838Z,75
2023-07-14T05:22:31.240Z,75
2023-07-14T05:23:04.135Z,76
2023-07-14T05:23:35.136Z,76
2023-07-14T05:24:07.867Z,75
2023-07-14T05:24:39.163Z,75
2023-07-14T05:25:11.968Z,74
2023-07-14T05:25:43.131Z,74
2023-07-14T05:26:16.037Z,74
2023-07-14T05:26:47.042Z,74
2023-07-14T05:27:19.928Z,74
2023-07-14T05:27:51.126Z,74
2023-07-14T05:28:23.520Z,74
2023-07-14T05:28:55.046Z,74
2023-07-14T05:29:28.749Z,73
2023-07-14T05:29:59.109Z,73
2023-07-14T05:30:32.965Z,73
2023-07-14T05:31:04.585Z,73
2023-07-14T05:31:35.957Z,73
2023-07-14T05:32:07.093Z,73
2023-07-14T05:32:39.778Z,73
2023-07-14T05:33:11.119Z,73
2023-07-14T05:33:43.828Z,72
2023-07-14T05:34:15.096Z,72
2023-07-14T05:34:47.991Z,72
2023-07-14T05:35:19.528Z,72
2023-07-14T05:35:51.710Z,72
2023-07-14T05:36:23.035Z,72
2023-07-14T05:36:55.905Z,72
2023-07-14T05:37:27.053Z,72
2023-07-14T05:38:00.746Z,72
2023-07-14T05:38:31.085Z,72
2023-07-14T05:39:04.211Z,72
2023-07-14T05:39:35.178Z,72
2023-07-14T05:40:08.068Z,71
2023-07-14T05:40:51.564Z,71
2023-07-14T05:41:11.949Z,71
2023-07-14T05:41:43.366Z,71
2023-07-14T05:42:16.456Z,71
2023-07-14T05:42:47.502Z,71
2023-07-14T05:43:20.183Z,72
2023-07-14T05:43:51.436Z,72
2023-07-14T05:44:24.269Z,71
2023-07-14T05:44:55.313Z,71
2023-07-14T05:45:30.448Z,71
2023-07-14T05:45:59.448Z,71
2023-07-14T05:46:32.417Z,71
2023-07-14T05:47:03.427Z,71
2023-07-14T05:47:37.090Z,70
2023-07-14T05:48:07.544Z,70
2023-07-14T05:48:40.099Z,70
2023-07-14T05:49:11.363Z,70
2023-07-14T05:49:45.436Z,70
2023-07-14T05:50:15.523Z,70
2023-07-14T05:50:49.404Z,69
2023-07-14T05:51:19.449Z,69
2023-07-14T05:51:52.348Z,69
2023-07-14T05:52:23.320Z,69
2023-07-14T05:52:56.181Z,69
2023-07-14T05:53:27.395Z,69
2023-07-14T05:54:00.149Z,69
2023-07-14T05:54:31.460Z,69
2023-07-14T05:55:04.532Z,70
2023-07-14T05:55:35.523Z,70
2023-07-14T05:56:08.050Z,69
2023-07-14T05:56:39.330Z,69
2023-07-14T05:57:12.120Z,69
2023-07-14T05:57:43.387Z,69
2023-07-14T05:58:16.239Z,68
2023-07-14T05:58:47.338Z,68
2023-07-14T05:59:20.313Z,68
2023-07-14T05:59:51.355Z,68
2023-07-14T06:00:26.340Z,68
2023-07-14T06:00:55.798Z,68
2023-07-14T06:01:28.399Z,67
2023-07-14T06:01:59.491Z,67
2023-07-14T06:02:32.461Z,67
2023-07-14T06:03:03.669Z,67
2023-07-14T06:03:37.182Z,66
2023-07-14T06:04:07.564Z,66
2023-07-14T06:04:40.262Z,65
2023-07-14T06:05:11.572Z,65
2023-07-14T06:05:44.257Z,65
2023-07-14T06:06:15.726Z,65
2023-07-14T06:06:48.386Z,64
2023-07-14T06:07:19.396Z,64
2023-07-14T06:07:52.292Z,64
2023-07-14T06:08:24.026Z,64
2023-07-14T06:08:56.070Z,63
2023-07-14T06:09:27.396Z,63
2023-07-14T06:10:00.074Z,63
2023-07-14T06:10:31.872Z,63
2023-07-14T06:11:04.206Z,62
2023-07-14T06:11:35.474Z,62
2023-07-14T06:12:08.351Z,62
2023-07-14T06:12:39.360Z,62
2023-07-14T06:12:55.479Z,62
2023-07-14T06:13:27.344Z,62
2023-07-14T06:13:59.325Z,62
2023-07-14T06:14:34.262Z,62
2023-07-14T06:15:06.992Z,61
2023-07-14T06:15:37.111Z,61
2023-07-14T06:16:08.075Z,61
2023-07-14T06:16:40.411Z,61
2023-07-14T06:17:11.389Z,61
2023-07-14T06:17:44.570Z,61
2023-07-14T06:18:15.875Z,60
2023-07-14T06:18:50.159Z,60
2023-07-14T06:19:19.670Z,61
2023-07-14T06:19:52.308Z,61
2023-07-14T06:20:23.888Z,60
2023-07-14T06:20:56.094Z,60
2023-07-14T06:21:27.550Z,60
2023-07-14T06:22:00.282Z,60
2023-07-14T06:22:31.403Z,60
2023-07-14T06:23:04.478Z,60
2023-07-14T06:23:35.533Z,59
2023-07-14T06:24:08.400Z,59
2023-07-14T06:24:39.383Z,59
2023-07-14T06:25:12.429Z,59
2023-07-14T06:25:43.627Z,59
2023-07-14T06:26:16.310Z,59
2023-07-14T06:26:47.546Z,59
2023-07-14T06:27:20.589Z,59
2023-07-14T06:27:51.575Z,59
2023-07-14T06:28:25.540Z,59
2023-07-14T06:28:55.580Z,58
2023-07-14T06:29:28.317Z,58
2023-07-14T06:29:59.524Z,58
2023-07-14T06:30:33.732Z,58
2023-07-14T06:31:03.378Z,58
2023-07-14T06:31:36.228Z,58
2023-07-14T06:32:07.539Z,56
2023-07-14T06:32:40.473Z,56
2023-07-14T06:33:11.523Z,56
2023-07-14T06:33:44.314Z,56
2023-07-14T06:34:15.548Z,56
2023-07-14T06:34:54.073Z,56
2023-07-14T06:35:19.719Z,56
2023-07-14T06:35:51.501Z,56
2023-07-14T06:36:23.405Z,56
2023-07-14T06:36:55.481Z,56
2023-07-14T06:37:27.367Z,56
2023-07-14T06:37:59.476Z,56
2023-07-14T06:38:31.440Z,56
2023-07-14T06:39:03.508Z,56
2023-07-14T06:39:36.493Z,55
2023-07-14T06:40:07.693Z,55
2023-07-14T06:40:40.193Z,55
2023-07-14T06:41:11.488Z,55
2023-07-14T06:41:44.321Z,55
2023-07-14T06:42:15.362Z,55
2023-07-14T06:42:49.181Z,54
2023-07-14T06:43:19.617Z,54
2023-07-14T06:43:52.206Z,55
2023-07-14T06:44:26.019Z,55
2023-07-14T06:44:56.335Z,55
2023-07-14T06:45:28.491Z,55
2023-07-14T06:46:00.499Z,54
2023-07-14T06:46:31.609Z,54
2023-07-14T06:47:04.551Z,54
2023-07-14T06:47:35.556Z,54
2023-07-14T06:48:23.492Z,53
2023-07-14T06:49:04.690Z,53
2023-07-14T06:49:29.378Z,54
2023-07-14T06:49:59.462Z,54
2023-07-14T06:50:31.969Z,54
2023-07-14T06:51:03.510Z,54
2023-07-14T06:51:35.551Z,54
2023-07-14T06:52:07.541Z,54
2023-07-14T06:52:39.423Z,54
2023-07-14T06:53:11.518Z,54
2023-07-14T06:53:43.369Z,54
2023-07-14T06:54:17.203Z,54
2023-07-14T06:54:47.620Z,53
2023-07-14T06:55:20.531Z,53
2023-07-14T06:55:51.493Z,53
2023-07-14T06:56:25.024Z,53
2023-07-14T06:56:55.516Z,54
2023-07-14T06:57:28.147Z,54
2023-07-14T06:57:59.375Z,54
2023-07-14T06:58:32.670Z,54
2023-07-14T06:59:03.479Z,54
2023-07-14T06:59:36.278Z,54
2023-07-14T07:00:09.065Z,52
2023-07-14T07:00:40.277Z,52
2023-07-14T07:01:11.669Z,52
2023-07-14T07:01:47.169Z,52
2023-07-14T07:02:15.664Z,52
2023-07-14T07:02:48.517Z,52
2023-07-14T07:03:19.412Z,52
2023-07-14T07:03:53.898Z,52
2023-07-14T07:04:23.573Z,52
2023-07-14T07:05:00.604Z,52
2023-07-14T07:05:27.467Z,52
2023-07-14T07:05:59.834Z,52
2023-07-14T07:06:31.654Z,53
2023-07-14T07:07:03.375Z,53
2023-07-14T07:07:36.413Z,51
2023-07-14T07:08:07.683Z,51
2023-07-14T07:08:41.092Z,50
2023-07-14T07:09:11.567Z,50
2023-07-14T07:09:44.396Z,51
2023-07-14T07:10:15.824Z,51
2023-07-14T07:10:48.370Z,52
2023-07-14T07:11:19.678Z,52
2023-07-14T07:11:52.014Z,50
2023-07-14T07:12:23.412Z,50
2023-07-14T07:12:56.381Z,50
2023-07-14T07:13:27.450Z,50
2023-07-14T07:14:01.256Z,50
2023-07-14T07:14:31.495Z,50
2023-07-14T07:15:05.675Z,51
2023-07-14T07:15:35.850Z,51
2023-07-14T07:16:08.407Z,49
2023-07-14T07:16:39.543Z,49
2023-07-14T07:17:12.291Z,48
2023-07-14T07:17:43.567Z,48
2023-07-14T07:18:16.415Z,49
2023-07-14T07:18:47.405Z,49
2023-07-14T07:19:20.298Z,48
2023-07-14T07:19:51.606Z,48
2023-07-14T07:20:25.326Z,48
2023-07-14T07:20:55.465Z,48
2023-07-14T07:21:28.352Z,48
2023-07-14T07:21:59.492Z,48
2023-07-14T07:22:32.342Z,48
2023-07-14T07:23:03.638Z,48
2023-07-14T07:23:36.462Z,48
2023-07-14T07:24:07.660Z,48
2023-07-14T07:24:41.243Z,48
2023-07-14T07:25:11.809Z,48
2023-07-14T07:25:45.342Z,48
2023-07-14T07:26:15.553Z,48
2023-07-14T07:26:48.187Z,47
2023-07-14T07:27:19.581Z,47
2023-07-14T07:27:52.611Z,48
2023-07-14T07:28:23.579Z,48
2023-07-14T07:28:56.328Z,48
2023-07-14T07:29:27.516Z,48
2023-07-14T07:30:00.178Z,48
2023-07-14T07:30:32.703Z,48
2023-07-14T07:31:04.249Z,48
2023-07-14T07:31:35.481Z,48
2023-07-14T07:32:08.584Z,48
2023-07-14T07:32:39.583Z,48
2023-07-14T07:33:12.399Z,48
2023-07-14T07:33:43.395Z,48
2023-07-14T07:34:16.375Z,47
2023-07-14T07:34:47.501Z,47